sensor_id;sensor_type;location;lat;lon;timestamp;P1;durP1;ratioP1;P2;durP2;ratioP2
81725;SDS011;71135;16.738;-14.648;2023-07-13T07:17:35;9.70;;;2.42;;
81725;SDS011;71135;16.738;-14.648;2023-07-13T07:23:22;11.10;;;2.63;;
81725;SDS011;71135;16.738;-14.648;2023-07-13T07:25:52;9.27;;;2.75;;
81725;SDS011;71135;16.738;-14.648;2023-07-13T07:28:21;11.35;;;2.80;;
81725;SDS011;71135;16.738;-14.648;2023-07-13T07:30:52;8.35;;;2.63;;
81725;SDS011;71135;16.738;-14.648;2023-07-13T07:36:31;7.60;;;2.30;;
81725;SDS011;71135;16.738;-14.648;2023-07-13T07:39:03;10.18;;;3.00;;
81725;SDS011;71135;16.738;-14.648;2023-07-13T07:44:39;6.10;;;2.30;;
81725;SDS011;71135;16.738;-14.648;2023-07-13T07:47:17;8.65;;;2.90;;
81725;SDS011;71135;16.738;-14.648;2023-07-13T07:49:46;6.47;;;2.40;;
81725;SDS011;71135;16.738;-14.648;2023-07-13T07:52:18;6.22;;;2.00;;
81725;SDS011;71135;16.738;-14.648;2023-07-13T07:55:00;6.05;;;2.05;;
81725;SDS011;71135;16.738;-14.648;2023-07-13T07:57:29;8.60;;;2.10;;
81725;SDS011;71135;16.738;-14.648;2023-07-13T08:09:00;2.75;;;1.30;;
81725;SDS011;71135;16.738;-14.648;2023-07-13T08:11:33;6.35;;;1.40;;
81725;SDS011;71135;16.738;-14.648;2023-07-13T08:14:11;4.13;;;1.63;;
81725;SDS011;71135;16.738;-14.648;2023-07-13T08:19:33;4.20;;;1.75;;
81725;SDS011;71135;16.738;-14.648;2023-07-13T08:45:17;5.38;;;2.20;;
81725;SDS011;71135;16.738;-14.648;2023-07-13T08:47:55;5.10;;;2.20;;
81725;SDS011;71135;16.738;-14.648;2023-07-13T08:50:30;5.63;;;2.30;;
81725;SDS011;71135;16.738;-14.648;2023-07-13T08:53:01;4.78;;;2.10;;
81725;SDS011;71135;16.738;-14.648;2023-07-13T08:59:00;6.07;;;1.95;;
81725;SDS011;71135;16.738;-14.648;2023-07-13T09:02:18;6.13;;;1.50;;
81725;SDS011;71135;16.738;-14.648;2023-07-13T09:04:59;7.57;;;2.00;;
81725;SDS011;71135;16.738;-14.648;2023-07-13T09:07:47;4.72;;;1.90;;
81725;SDS011;71135;16.738;-14.648;2023-07-13T09:10:36;5.40;;;1.58;;
81725;SDS011;71135;16.738;-14.648;2023-07-13T09:13:31;7.03;;;1.92;;
81725;SDS011;71135;16.738;-14.648;2023-07-13T09:16:08;7.40;;;1.30;;
81725;SDS011;71135;16.738;-14.648;2023-07-13T09:25:19;3.50;;;1.70;;
81725;SDS011;71135;16.738;-14.648;2023-07-13T09:28:02;3.80;;;1.63;;
81725;SDS011;71135;16.738;-14.648;2023-07-13T09:31:04;5.85;;;1.90;;
81725;SDS011;71135;16.738;-14.648;2023-07-13T09:34:13;4.40;;;1.80;;
81725;SDS011;71135;16.738;-14.648;2023-07-13T09:36:43;4.15;;;1.40;;
81725;SDS011;71135;16.738;-14.648;2023-07-13T09:39:14;4.75;;;1.95;;
81725;SDS011;71135;16.738;-14.648;2023-07-13T09:42:34;5.35;;;1.60;;
81725;SDS011;71135;16.738;-14.648;2023-07-13T09:48:54;4.20;;;1.70;;
81725;SDS011;71135;16.738;-14.648;2023-07-13T09:51:47;4.05;;;1.40;;
81725;SDS011;71135;16.738;-14.648;2023-07-13T09:54:25;4.95;;;1.83;;
81725;SDS011;71135;16.738;-14.648;2023-07-13T09:56:55;4.10;;;1.42;;
81725;SDS011;71135;16.738;-14.648;2023-07-13T09:59:30;2.70;;;1.40;;
81725;SDS011;71135;16.738;-14.648;2023-07-13T10:02:08;7.30;;;2.90;;
81725;SDS011;71135;16.738;-14.648;2023-07-13T10:04:56;4.95;;;1.48;;
81725;SDS011;71135;16.738;-14.648;2023-07-13T10:07:27;4.97;;;1.75;;
81725;SDS011;71135;16.738;-14.648;2023-07-13T10:13:08;6.35;;;1.80;;
81725;SDS011;71135;16.738;-14.648;2023-07-13T10:16:07;7.32;;;1.95;;
81725;SDS011;71135;16.738;-14.648;2023-07-13T10:18:42;3.25;;;1.70;;
81725;SDS011;71135;16.738;-14.648;2023-07-13T10:21:15;5.32;;;1.75;;
81725;SDS011;71135;16.738;-14.648;2023-07-13T10:23:50;4.63;;;1.75;;
81725;SDS011;71135;16.738;-14.648;2023-07-13T10:26:26;3.78;;;1.77;;
81725;SDS011;71135;16.738;-14.648;2023-07-13T10:32:27;7.50;;;1.73;;
81725;SDS011;71135;16.738;-14.648;2023-07-13T10:34:58;2.88;;;1.50;;
81725;SDS011;71135;16.738;-14.648;2023-07-13T10:37:29;3.63;;;1.45;;
81725;SDS011;71135;16.738;-14.648;2023-07-13T10:40:04;4.28;;;1.70;;
81725;SDS011;71135;16.738;-14.648;2023-07-13T10:45:40;5.72;;;1.65;;
81725;SDS011;71135;16.738;-14.648;2023-07-13T10:48:13;6.90;;;1.88;;
81725;SDS011;71135;16.738;-14.648;2023-07-13T10:50:45;5.45;;;1.70;;
81725;SDS011;71135;16.738;-14.648;2023-07-13T10:53:20;3.67;;;1.35;;
81725;SDS011;71135;16.738;-14.648;2023-07-13T10:55:58;5.57;;;1.60;;
81725;SDS011;71135;16.738;-14.648;2023-07-13T10:58:39;5.47;;;1.90;;
81725;SDS011;71135;16.738;-14.648;2023-07-13T11:01:16;2.55;;;1.70;;
81725;SDS011;71135;16.738;-14.648;2023-07-13T11:04:00;2.95;;;1.42;;
81725;SDS011;71135;16.738;-14.648;2023-07-13T11:06:37;2.80;;;1.92;;
81725;SDS011;71135;16.738;-14.648;2023-07-13T11:09:18;4.10;;;1.42;;
81725;SDS011;71135;16.738;-14.648;2023-07-13T11:12:26;4.75;;;1.70;;
81725;SDS011;71135;16.738;-14.648;2023-07-13T11:15:11;5.63;;;1.63;;
81725;SDS011;71135;16.738;-14.648;2023-07-13T11:17:48;7.93;;;1.90;;
81725;SDS011;71135;16.738;-14.648;2023-07-13T11:20:34;4.63;;;1.50;;
81725;SDS011;71135;16.738;-14.648;2023-07-13T11:29:12;4.47;;;1.90;;
81725;SDS011;71135;16.738;-14.648;2023-07-13T11:32:21;4.13;;;1.75;;
81725;SDS011;71135;16.738;-14.648;2023-07-13T11:34:52;3.60;;;1.55;;
81725;SDS011;71135;16.738;-14.648;2023-07-13T11:37:28;3.88;;;1.70;;
81725;SDS011;71135;16.738;-14.648;2023-07-13T11:40:14;5.30;;;1.55;;
81725;SDS011;71135;16.738;-14.648;2023-07-13T11:42:58;4.18;;;1.30;;
81725;SDS011;71135;16.738;-14.648;2023-07-13T11:45:28;3.85;;;1.60;;
81725;SDS011;71135;16.738;-14.648;2023-07-13T11:47:57;3.70;;;1.83;;
81725;SDS011;71135;16.738;-14.648;2023-07-13T11:50:34;6.07;;;2.03;;
81725;SDS011;71135;16.738;-14.648;2023-07-13T11:53:08;4.57;;;1.48;;
81725;SDS011;71135;16.738;-14.648;2023-07-13T11:55:41;4.30;;;1.55;;
81725;SDS011;71135;16.738;-14.648;2023-07-13T11:58:19;3.80;;;1.75;;
81725;SDS011;71135;16.738;-14.648;2023-07-13T12:00:54;3.30;;;1.55;;
81725;SDS011;71135;16.738;-14.648;2023-07-13T12:03:31;3.47;;;1.42;;
81725;SDS011;71135;16.738;-14.648;2023-07-13T12:09:12;2.90;;;1.17;;
81725;SDS011;71135;16.738;-14.648;2023-07-13T12:15:10;5.50;;;1.50;;
81725;SDS011;71135;16.738;-14.648;2023-07-13T12:17:50;4.57;;;1.52;;
81725;SDS011;71135;16.738;-14.648;2023-07-13T12:20:24;2.85;;;1.38;;
81725;SDS011;71135;16.738;-14.648;2023-07-13T12:22:55;6.22;;;1.38;;
81725;SDS011;71135;16.738;-14.648;2023-07-13T12:25:36;3.75;;;1.25;;
81725;SDS011;71135;16.738;-14.648;2023-07-13T12:34:25;4.53;;;1.35;;
81725;SDS011;71135;16.738;-14.648;2023-07-13T12:36:56;3.08;;;1.77;;
81725;SDS011;71135;16.738;-14.648;2023-07-13T12:39:34;4.60;;;1.65;;
81725;SDS011;71135;16.738;-14.648;2023-07-13T12:50:46;6.18;;;1.77;;
81725;SDS011;71135;16.738;-14.648;2023-07-13T13:06:39;2.75;;;1.33;;
81725;SDS011;71135;16.738;-14.648;2023-07-13T13:09:13;4.35;;;1.40;;
81725;SDS011;71135;16.738;-14.648;2023-07-13T13:14:23;3.92;;;1.35;;
81725;SDS011;71135;16.738;-14.648;2023-07-13T15:21:24;5.40;;;1.88;;
81725;SDS011;71135;16.738;-14.648;2023-07-13T15:24:00;5.95;;;1.85;;
81725;SDS011;71135;16.738;-14.648;2023-07-13T15:26:29;7.60;;;1.75;;
81725;SDS011;71135;16.738;-14.648;2023-07-13T15:29:00;9.25;;;2.47;;
81725;SDS011;71135;16.738;-14.648;2023-07-13T15:31:30;6.22;;;2.00;;
81725;SDS011;71135;16.738;-14.648;2023-07-13T15:34:12;5.00;;;1.80;;
81725;SDS011;71135;16.738;-14.648;2023-07-13T15:36:46;4.10;;;1.90;;
81725;SDS011;71135;16.738;-14.648;2023-07-13T15:39:16;4.68;;;2.15;;
81725;SDS011;71135;16.738;-14.648;2023-07-13T15:41:46;3.78;;;1.80;;
81725;SDS011;71135;16.738;-14.648;2023-07-13T15:44:23;5.18;;;2.40;;
81725;SDS011;71135;16.738;-14.648;2023-07-13T15:46:56;3.10;;;1.95;;
81725;SDS011;71135;16.738;-14.648;2023-07-13T15:49:26;4.93;;;2.38;;
81725;SDS011;71135;16.738;-14.648;2023-07-13T15:51:58;4.82;;;2.15;;
81725;SDS011;71135;16.738;-14.648;2023-07-13T15:54:27;2.70;;;1.80;;
81725;SDS011;71135;16.738;-14.648;2023-07-13T15:56:56;4.22;;;2.10;;
81725;SDS011;71135;16.738;-14.648;2023-07-13T15:59:32;4.75;;;2.00;;
81725;SDS011;71135;16.738;-14.648;2023-07-13T16:02:04;4.10;;;2.05;;
81725;SDS011;71135;16.738;-14.648;2023-07-13T16:04:41;4.00;;;1.88;;
81725;SDS011;71135;16.738;-14.648;2023-07-13T16:07:14;4.00;;;1.73;;
81725;SDS011;71135;16.738;-14.648;2023-07-13T16:09:46;3.15;;;1.92;;
81725;SDS011;71135;16.738;-14.648;2023-07-13T16:12:16;2.55;;;1.70;;
81725;SDS011;71135;16.738;-14.648;2023-07-13T16:14:47;4.55;;;2.17;;
81725;SDS011;71135;16.738;-14.648;2023-07-13T16:17:16;4.35;;;2.20;;
81725;SDS011;71135;16.738;-14.648;2023-07-13T16:19:46;5.30;;;2.05;;
81725;SDS011;71135;16.738;-14.648;2023-07-13T16:22:18;4.75;;;2.15;;
81725;SDS011;71135;16.738;-14.648;2023-07-13T16:24:48;4.28;;;2.30;;
81725;SDS011;71135;16.738;-14.648;2023-07-13T16:27:21;4.35;;;2.30;;
81725;SDS011;71135;16.738;-14.648;2023-07-13T16:29:51;3.53;;;2.50;;
81725;SDS011;71135;16.738;-14.648;2023-07-13T16:32:20;4.28;;;2.20;;
81725;SDS011;71135;16.738;-14.648;2023-07-13T16:34:51;5.53;;;2.53;;
81725;SDS011;71135;16.738;-14.648;2023-07-13T16:37:26;4.85;;;2.58;;
81725;SDS011;71135;16.738;-14.648;2023-07-13T16:39:58;6.20;;;2.15;;
81725;SDS011;71135;16.738;-14.648;2023-07-13T16:42:33;4.60;;;2.22;;
81725;SDS011;71135;16.738;-14.648;2023-07-13T16:45:04;4.03;;;2.08;;
81725;SDS011;71135;16.738;-14.648;2023-07-13T16:47:37;3.60;;;1.60;;
81725;SDS011;71135;16.738;-14.648;2023-07-13T16:50:13;4.82;;;2.35;;
81725;SDS011;71135;16.738;-14.648;2023-07-13T16:52:46;3.15;;;2.20;;
81725;SDS011;71135;16.738;-14.648;2023-07-13T16:55:17;2.95;;;1.65;;
81725;SDS011;71135;16.738;-14.648;2023-07-13T16:57:53;4.35;;;1.90;;
81725;SDS011;71135;16.738;-14.648;2023-07-13T17:00:25;4.38;;;1.75;;
81725;SDS011;71135;16.738;-14.648;2023-07-13T17:02:57;6.28;;;2.40;;
81725;SDS011;71135;16.738;-14.648;2023-07-13T17:05:32;4.03;;;1.50;;
81725;SDS011;71135;16.738;-14.648;2023-07-13T17:08:13;6.85;;;2.05;;
81725;SDS011;71135;16.738;-14.648;2023-07-13T17:10:46;4.53;;;2.03;;
81725;SDS011;71135;16.738;-14.648;2023-07-13T17:13:17;4.95;;;2.13;;
81725;SDS011;71135;16.738;-14.648;2023-07-13T17:15:49;5.57;;;2.05;;
81725;SDS011;71135;16.738;-14.648;2023-07-13T17:18:22;3.92;;;2.00;;
81725;SDS011;71135;16.738;-14.648;2023-07-13T17:20:53;5.38;;;2.10;;
81725;SDS011;71135;16.738;-14.648;2023-07-13T17:23:26;5.45;;;2.58;;
81725;SDS011;71135;16.738;-14.648;2023-07-13T17:25:55;7.82;;;2.10;;
81725;SDS011;71135;16.738;-14.648;2023-07-13T17:28:25;4.38;;;1.80;;
81725;SDS011;71135;16.738;-14.648;2023-07-13T17:30:55;7.32;;;1.88;;
81725;SDS011;71135;16.738;-14.648;2023-07-13T17:33:26;4.18;;;2.03;;
81725;SDS011;71135;16.738;-14.648;2023-07-13T17:35:58;5.72;;;1.95;;
81725;SDS011;71135;16.738;-14.648;2023-07-13T17:38:35;4.35;;;1.92;;
81725;SDS011;71135;16.738;-14.648;2023-07-13T17:41:09;4.38;;;1.88;;
81725;SDS011;71135;16.738;-14.648;2023-07-13T17:43:40;4.28;;;1.42;;
81725;SDS011;71135;16.738;-14.648;2023-07-13T17:46:11;4.22;;;1.80;;
81725;SDS011;71135;16.738;-14.648;2023-07-13T17:48:42;5.32;;;1.75;;
81725;SDS011;71135;16.738;-14.648;2023-07-13T17:51:14;4.65;;;1.98;;
81725;SDS011;71135;16.738;-14.648;2023-07-13T17:56:34;5.93;;;1.90;;
81725;SDS011;71135;16.738;-14.648;2023-07-13T17:59:04;4.47;;;1.92;;
81725;SDS011;71135;16.738;-14.648;2023-07-13T18:01:34;3.80;;;1.90;;
81725;SDS011;71135;16.738;-14.648;2023-07-13T18:06:38;5.93;;;1.83;;
81725;SDS011;71135;16.738;-14.648;2023-07-13T18:09:16;5.65;;;1.75;;
81725;SDS011;71135;16.738;-14.648;2023-07-13T18:11:49;6.50;;;2.00;;
81725;SDS011;71135;16.738;-14.648;2023-07-13T18:14:18;6.50;;;2.28;;
81725;SDS011;71135;16.738;-14.648;2023-07-13T18:16:50;4.65;;;2.42;;
81725;SDS011;71135;16.738;-14.648;2023-07-13T18:19:24;5.90;;;2.63;;
81725;SDS011;71135;16.738;-14.648;2023-07-13T18:21:58;5.53;;;2.13;;
81725;SDS011;71135;16.738;-14.648;2023-07-13T18:24:30;4.68;;;2.10;;
81725;SDS011;71135;16.738;-14.648;2023-07-13T18:27:00;7.25;;;2.40;;
81725;SDS011;71135;16.738;-14.648;2023-07-13T18:29:30;5.93;;;2.28;;
81725;SDS011;71135;16.738;-14.648;2023-07-13T18:32:00;4.10;;;2.05;;
81725;SDS011;71135;16.738;-14.648;2023-07-13T18:34:31;3.60;;;1.83;;
81725;SDS011;71135;16.738;-14.648;2023-07-13T18:37:08;4.63;;;1.48;;
81725;SDS011;71135;16.738;-14.648;2023-07-13T18:39:48;5.05;;;2.13;;
81725;SDS011;71135;16.738;-14.648;2023-07-13T18:42:19;6.72;;;2.00;;
81725;SDS011;71135;16.738;-14.648;2023-07-13T18:44:50;8.48;;;2.42;;
81725;SDS011;71135;16.738;-14.648;2023-07-13T18:47:22;5.68;;;1.85;;
81725;SDS011;71135;16.738;-14.648;2023-07-13T18:52:24;3.30;;;1.83;;
81725;SDS011;71135;16.738;-14.648;2023-07-13T18:54:56;5.75;;;2.20;;
81725;SDS011;71135;16.738;-14.648;2023-07-13T18:57:25;5.38;;;2.33;;
81725;SDS011;71135;16.738;-14.648;2023-07-13T18:59:56;7.10;;;2.42;;
81725;SDS011;71135;16.738;-14.648;2023-07-13T19:02:25;4.13;;;1.85;;
81725;SDS011;71135;16.738;-14.648;2023-07-13T19:04:56;6.57;;;2.17;;
81725;SDS011;71135;16.738;-14.648;2023-07-13T19:07:26;4.68;;;2.25;;
81725;SDS011;71135;16.738;-14.648;2023-07-13T19:10:01;5.63;;;1.98;;
81725;SDS011;71135;16.738;-14.648;2023-07-13T19:12:32;3.17;;;1.88;;
81725;SDS011;71135;16.738;-14.648;2023-07-13T19:15:04;7.03;;;2.03;;
81725;SDS011;71135;16.738;-14.648;2023-07-13T19:17:44;4.97;;;1.92;;
81725;SDS011;71135;16.738;-14.648;2023-07-13T19:20:14;5.53;;;2.05;;
81725;SDS011;71135;16.738;-14.648;2023-07-13T19:22:49;4.85;;;1.88;;
81725;SDS011;71135;16.738;-14.648;2023-07-13T19:25:24;6.57;;;2.55;;
81725;SDS011;71135;16.738;-14.648;2023-07-13T19:27:55;3.83;;;2.10;;
81725;SDS011;71135;16.738;-14.648;2023-07-13T19:30:28;4.68;;;1.92;;
81725;SDS011;71135;16.738;-14.648;2023-07-13T19:32:58;5.28;;;1.65;;
81725;SDS011;71135;16.738;-14.648;2023-07-13T19:35:28;4.70;;;2.03;;
81725;SDS011;71135;16.738;-14.648;2023-07-13T19:37:59;5.53;;;1.95;;
81725;SDS011;71135;16.738;-14.648;2023-07-13T19:40:31;6.10;;;1.95;;
81725;SDS011;71135;16.738;-14.648;2023-07-13T19:43:00;5.10;;;1.90;;
81725;SDS011;71135;16.738;-14.648;2023-07-13T19:45:34;10.88;;;2.08;;
81725;SDS011;71135;16.738;-14.648;2023-07-13T19:48:03;6.60;;;2.22;;
81725;SDS011;71135;16.738;-14.648;2023-07-13T19:50:33;5.72;;;2.40;;
81725;SDS011;71135;16.738;-14.648;2023-07-13T19:53:04;4.43;;;2.25;;
81725;SDS011;71135;16.738;-14.648;2023-07-13T19:55:36;3.88;;;1.80;;
81725;SDS011;71135;16.738;-14.648;2023-07-13T19:58:07;7.05;;;2.30;;
81725;SDS011;71135;16.738;-14.648;2023-07-13T20:00:38;4.50;;;1.90;;
81725;SDS011;71135;16.738;-14.648;2023-07-13T20:03:08;7.43;;;2.00;;
81725;SDS011;71135;16.738;-14.648;2023-07-13T20:05:37;3.88;;;1.65;;
81725;SDS011;71135;16.738;-14.648;2023-07-13T20:08:11;6.78;;;2.10;;
81725;SDS011;71135;16.738;-14.648;2023-07-13T20:10:50;4.20;;;1.95;;
81725;SDS011;71135;16.738;-14.648;2023-07-13T20:13:20;6.63;;;2.42;;
81725;SDS011;71135;16.738;-14.648;2023-07-13T20:15:57;7.07;;;2.25;;
81725;SDS011;71135;16.738;-14.648;2023-07-13T20:18:26;5.90;;;2.60;;
81725;SDS011;71135;16.738;-14.648;2023-07-13T20:20:55;6.07;;;2.72;;
81725;SDS011;71135;16.738;-14.648;2023-07-13T20:23:25;3.88;;;1.98;;
81725;SDS011;71135;16.738;-14.648;2023-07-13T20:25:57;5.15;;;2.10;;
81725;SDS011;71135;16.738;-14.648;2023-07-13T20:28:27;3.55;;;1.77;;
81725;SDS011;71135;16.738;-14.648;2023-07-13T20:30:56;6.57;;;2.10;;
81725;SDS011;71135;16.738;-14.648;2023-07-13T20:33:27;6.13;;;2.53;;
81725;SDS011;71135;16.738;-14.648;2023-07-13T20:35:59;5.68;;;2.13;;
81725;SDS011;71135;16.738;-14.648;2023-07-13T20:38:32;4.10;;;1.88;;
81725;SDS011;71135;16.738;-14.648;2023-07-13T20:41:04;6.43;;;2.22;;
81725;SDS011;71135;16.738;-14.648;2023-07-13T20:43:34;4.10;;;1.40;;
81725;SDS011;71135;16.738;-14.648;2023-07-13T20:46:04;5.28;;;2.17;;
81725;SDS011;71135;16.738;-14.648;2023-07-13T20:48:41;3.88;;;1.92;;
81725;SDS011;71135;16.738;-14.648;2023-07-13T20:51:13;5.78;;;2.17;;
81725;SDS011;71135;16.738;-14.648;2023-07-13T20:53:48;4.22;;;1.90;;
81725;SDS011;71135;16.738;-14.648;2023-07-13T20:56:22;4.95;;;2.03;;
81725;SDS011;71135;16.738;-14.648;2023-07-13T20:58:55;5.38;;;2.20;;
81725;SDS011;71135;16.738;-14.648;2023-07-13T21:01:26;5.90;;;2.10;;
81725;SDS011;71135;16.738;-14.648;2023-07-13T21:03:59;6.68;;;2.78;;
81725;SDS011;71135;16.738;-14.648;2023-07-13T21:06:31;5.57;;;2.90;;
81725;SDS011;71135;16.738;-14.648;2023-07-13T21:09:04;6.55;;;3.05;;
81725;SDS011;71135;16.738;-14.648;2023-07-13T21:14:14;4.78;;;3.00;;
81725;SDS011;71135;16.738;-14.648;2023-07-13T21:16:45;6.15;;;3.03;;
81725;SDS011;71135;16.738;-14.648;2023-07-13T21:19:14;5.60;;;2.47;;
81725;SDS011;71135;16.738;-14.648;2023-07-13T21:21:44;5.97;;;2.83;;
81725;SDS011;71135;16.738;-14.648;2023-07-13T21:24:13;6.07;;;3.38;;
81725;SDS011;71135;16.738;-14.648;2023-07-13T21:26:46;6.70;;;2.63;;
81725;SDS011;71135;16.738;-14.648;2023-07-13T21:29:16;4.88;;;2.75;;
81725;SDS011;71135;16.738;-14.648;2023-07-13T21:31:45;4.25;;;2.63;;
81725;SDS011;71135;16.738;-14.648;2023-07-13T21:34:18;6.00;;;2.92;;
81725;SDS011;71135;16.738;-14.648;2023-07-13T21:36:49;6.43;;;3.20;;
81725;SDS011;71135;16.738;-14.648;2023-07-13T21:39:24;7.03;;;2.67;;
